createdAt,value
2022-10-26T00:01:15.051Z,100.00
2022-10-26T00:03:43.600Z,100.00
2022-10-26T00:06:12.852Z,100.00
2022-10-26T00:08:40.429Z,100.00
2022-10-26T00:11:07.516Z,100.00
2022-10-26T00:13:34.949Z,100.00
2022-10-26T00:16:02.024Z,100.00
2022-10-26T00:18:28.665Z,100.00
2022-10-26T00:20:55.197Z,100.00
2022-10-26T00:23:21.731Z,100.00
2022-10-26T00:25:55.523Z,100.00
2022-10-26T00:28:22.105Z,100.00
2022-10-26T00:30:48.674Z,99.41
2022-10-26T00:33:15.311Z,99.69
2022-10-26T00:35:45.843Z,100.00
2022-10-26T00:38:13.271Z,100.00
2022-10-26T00:40:39.834Z,100.00
2022-10-26T00:43:14.875Z,99.81
2022-10-26T00:45:43.013Z,99.42
2022-10-26T00:48:19.364Z,98.87
2022-10-26T00:50:47.930Z,99.61
2022-10-26T00:53:15.676Z,100.00
2022-10-26T00:55:45.913Z,100.00
2022-10-26T00:58:13.420Z,100.00
2022-10-26T01:00:41.732Z,100.00
2022-10-26T01:03:10.020Z,100.00
2022-10-26T01:05:42.312Z,100.00
2022-10-26T01:08:09.579Z,100.00
2022-10-26T01:10:40.268Z,100.00
2022-10-26T01:13:07.079Z,100.00
2022-10-26T01:16:06.198Z,100.00
2022-10-26T01:19:14.762Z,100.00
2022-10-26T01:21:45.902Z,100.00
2022-10-26T01:24:18.342Z,100.00
2022-10-26T01:26:54.338Z,100.00
2022-10-26T01:29:48.214Z,100.00
2022-10-26T01:32:30.220Z,100.00
2022-10-26T01:35:10.742Z,100.00
2022-10-26T01:37:54.855Z,100.00
2022-10-26T01:40:31.121Z,100.00
2022-10-26T01:43:02.967Z,100.00
2022-10-26T01:45:32.214Z,100.00
2022-10-26T01:48:00.217Z,100.00
2022-10-26T01:50:27.652Z,100.00
2022-10-26T01:52:54.896Z,100.00
2022-10-26T01:55:45.843Z,100.00
2022-10-26T01:58:37.045Z,100.00
2022-10-26T02:01:22.233Z,100.00
2022-10-26T02:03:53.990Z,100.00
2022-10-26T02:06:37.078Z,100.00
2022-10-26T02:09:15.496Z,100.00
2022-10-26T02:11:47.048Z,100.00
2022-10-26T02:14:19.624Z,100.00
2022-10-26T02:17:12.726Z,100.00
2022-10-26T02:19:52.592Z,100.00
2022-10-26T02:22:26.978Z,100.00
2022-10-26T02:24:55.861Z,100.00
2022-10-26T02:27:32.949Z,100.00
2022-10-26T02:30:01.777Z,100.00
2022-10-26T02:32:34.046Z,100.00
2022-10-26T02:35:02.572Z,100.00
2022-10-26T02:37:30.443Z,100.00
2022-10-26T02:39:58.597Z,100.00
2022-10-26T02:42:27.929Z,100.00
2022-10-26T02:45:02.913Z,100.00
2022-10-26T02:47:30.070Z,100.00
2022-10-26T02:49:56.761Z,100.00
2022-10-26T02:52:32.035Z,100.00
2022-10-26T02:55:12.481Z,100.00
2022-10-26T02:57:42.407Z,100.00
2022-10-26T03:00:17.316Z,100.00
2022-10-26T03:02:47.733Z,100.00
2022-10-26T03:05:23.031Z,100.00
2022-10-26T03:07:49.550Z,100.00
2022-10-26T03:10:16.086Z,100.00
2022-10-26T03:12:42.681Z,100.00
2022-10-26T03:15:09.636Z,100.00
2022-10-26T03:17:36.202Z,100.00
2022-10-26T03:20:03.648Z,100.00
2022-10-26T03:22:30.422Z,100.00
2022-10-26T03:24:56.994Z,100.00
2022-10-26T03:27:23.612Z,100.00
2022-10-26T03:29:50.178Z,100.00
2022-10-26T03:32:16.760Z,100.00
2022-10-26T03:34:43.387Z,100.00
2022-10-26T03:37:10.181Z,100.00
2022-10-26T03:39:36.752Z,100.00
2022-10-26T03:42:03.478Z,100.00
2022-10-26T03:44:30.106Z,100.00
2022-10-26T03:46:56.608Z,100.00
2022-10-26T03:49:23.223Z,100.00
2022-10-26T03:51:49.817Z,100.00
2022-10-26T03:54:16.357Z,100.00
2022-10-26T03:56:42.866Z,100.00
2022-10-26T03:59:09.428Z,100.00
2022-10-26T04:01:36.156Z,100.00
2022-10-26T04:04:02.843Z,100.00
2022-10-26T04:06:29.456Z,100.00
2022-10-26T04:09:01.927Z,100.00
2022-10-26T04:11:29.499Z,100.00
2022-10-26T04:13:56.208Z,100.00
2022-10-26T04:16:22.719Z,100.00
2022-10-26T04:18:49.298Z,100.00
2022-10-26T04:21:15.833Z,100.00
2022-10-26T04:23:42.351Z,100.00
2022-10-26T04:26:08.912Z,100.00
2022-10-26T04:28:35.437Z,100.00
2022-10-26T04:31:02.073Z,100.00
2022-10-26T04:33:28.711Z,100.00
2022-10-26T04:36:04.714Z,100.00
2022-10-26T04:38:31.343Z,100.00
2022-10-26T04:40:58.015Z,100.00
2022-10-26T04:43:24.624Z,100.00
2022-10-26T04:45:55.124Z,100.00
2022-10-26T04:48:21.715Z,100.00
2022-10-26T04:50:48.295Z,100.00
2022-10-26T04:53:15.087Z,100.00
2022-10-26T04:55:41.660Z,100.00
2022-10-26T04:58:08.317Z,100.00
2022-10-26T05:00:35.244Z,100.00
2022-10-26T05:03:07.286Z,100.00
2022-10-26T05:05:36.052Z,100.00
2022-10-26T05:08:03.055Z,100.00
2022-10-26T05:10:30.293Z,100.00
2022-10-26T05:12:59.411Z,100.00
2022-10-26T05:15:26.883Z,100.00
2022-10-26T05:17:58.362Z,100.00
2022-10-26T05:20:30.963Z,100.00
2022-10-26T05:22:59.558Z,100.00
2022-10-26T05:25:26.384Z,100.00
2022-10-26T05:27:57.010Z,100.00
2022-10-26T05:30:23.542Z,100.00
2022-10-26T05:33:00.480Z,100.00
2022-10-26T05:35:27.483Z,100.00
2022-10-26T05:37:54.316Z,100.00
2022-10-26T05:40:21.047Z,100.00
2022-10-26T05:42:47.986Z,100.00
2022-10-26T05:45:14.797Z,100.00
2022-10-26T05:47:42.560Z,100.00
2022-10-26T05:50:10.437Z,100.00
2022-10-26T05:52:45.253Z,100.00
2022-10-26T05:55:13.006Z,100.00
2022-10-26T05:57:39.988Z,100.00
2022-10-26T06:00:21.954Z,100.00
2022-10-26T06:03:13.059Z,100.00
2022-10-26T06:05:57.560Z,100.00
2022-10-26T06:08:26.572Z,100.00
2022-10-26T06:10:54.539Z,100.00
2022-10-26T06:13:21.475Z,100.00
2022-10-26T06:16:06.776Z,100.00
2022-10-26T06:18:35.321Z,100.00
2022-10-26T06:21:32.439Z,100.00
2022-10-26T06:24:09.119Z,100.00
2022-10-26T06:27:00.417Z,100.00
2022-10-26T06:29:54.639Z,100.00
2022-10-26T06:32:23.553Z,100.00
2022-10-26T06:34:53.047Z,100.00
2022-10-26T06:37:21.274Z,100.00
2022-10-26T06:39:53.910Z,100.00
2022-10-26T06:42:21.622Z,100.00
2022-10-26T06:44:48.834Z,100.00
2022-10-26T06:47:31.287Z,100.00
2022-10-26T06:50:08.153Z,100.00
2022-10-26T06:52:46.634Z,100.00
2022-10-26T06:55:16.862Z,100.00
2022-10-26T06:57:44.506Z,100.00
2022-10-26T07:00:21.312Z,100.00
2022-10-26T07:02:49.558Z,100.00
2022-10-26T07:05:16.496Z,100.00
2022-10-26T07:07:47.883Z,100.00
2022-10-26T07:10:15.572Z,100.00
2022-10-26T07:12:42.182Z,100.00
2022-10-26T07:17:45.886Z,100.00
2022-10-26T07:20:13.229Z,100.00
2022-10-26T07:22:39.933Z,100.00
2022-10-26T07:25:08.078Z,100.00
2022-10-26T07:27:35.272Z,100.00
2022-10-26T07:30:02.409Z,100.00
2022-10-26T07:32:29.715Z,100.00
2022-10-26T07:34:58.724Z,100.00
2022-10-26T07:37:25.229Z,100.00
2022-10-26T07:39:51.724Z,100.00
2022-10-26T07:42:19.032Z,100.00
2022-10-26T07:44:45.573Z,100.00
2022-10-26T07:47:12.407Z,100.00
2022-10-26T07:49:38.969Z,100.00
2022-10-26T07:52:05.882Z,100.00
2022-10-26T07:54:32.810Z,100.00
2022-10-26T07:56:59.520Z,100.00
2022-10-26T07:59:26.117Z,100.00
2022-10-26T08:01:52.938Z,100.00
2022-10-26T08:04:19.525Z,100.00
2022-10-26T08:06:47.203Z,100.00
2022-10-26T08:09:13.701Z,100.00
2022-10-26T08:11:40.267Z,100.00
2022-10-26T08:14:06.780Z,100.00
2022-10-26T08:16:35.030Z,100.00
2022-10-26T08:19:02.037Z,100.00
2022-10-26T08:21:39.096Z,100.00
2022-10-26T08:24:06.332Z,100.00
2022-10-26T08:26:33.039Z,100.00
2022-10-26T08:28:59.597Z,100.00
2022-10-26T08:31:26.104Z,100.00
2022-10-26T08:33:52.632Z,100.00
2022-10-26T08:36:28.717Z,100.00
2022-10-26T08:38:55.317Z,100.00
2022-10-26T08:41:35.046Z,100.00
2022-10-26T08:44:13.478Z,100.00
2022-10-26T08:46:45.748Z,100.00
2022-10-26T08:49:41.164Z,100.00
2022-10-26T08:52:14.505Z,100.00
2022-10-26T08:54:51.737Z,100.00
2022-10-26T08:57:53.945Z,100.00
2022-10-26T09:00:23.024Z,100.00
2022-10-26T09:02:51.262Z,100.00
2022-10-26T09:05:38.810Z,100.00
2022-10-26T09:08:19.336Z,100.00
2022-10-26T09:11:15.212Z,100.00
2022-10-26T09:13:59.997Z,100.00
2022-10-26T09:16:30.260Z,100.00
2022-10-26T09:19:17.689Z,100.00
2022-10-26T09:22:09.847Z,100.00
2022-10-26T09:24:47.325Z,100.00
2022-10-26T09:27:24.096Z,100.00
2022-10-26T09:29:52.234Z,100.00
2022-10-26T09:32:34.215Z,100.00
2022-10-26T09:35:09.728Z,100.00
2022-10-26T09:37:42.862Z,100.00
2022-10-26T09:40:34.346Z,100.00
2022-10-26T09:43:25.049Z,100.00
2022-10-26T09:45:52.843Z,99.62
2022-10-26T09:48:22.314Z,98.79
2022-10-26T09:50:51.386Z,97.96
2022-10-26T09:53:17.987Z,97.40
2022-10-26T09:55:50.327Z,96.59
2022-10-26T09:58:24.119Z,96.82
2022-10-26T10:00:53.653Z,95.90
2022-10-26T10:03:28.871Z,95.83
2022-10-26T10:06:20.052Z,94.58
2022-10-26T10:09:07.205Z,94.79
2022-10-26T10:11:55.383Z,93.41
2022-10-26T10:14:28.392Z,93.01
2022-10-26T10:17:01.378Z,93.42
2022-10-26T10:19:38.793Z,93.13
2022-10-26T10:22:12.992Z,93.03
2022-10-26T10:24:52.792Z,93.45
2022-10-26T10:27:19.898Z,93.18
2022-10-26T10:29:59.706Z,91.85
2022-10-26T10:32:35.470Z,91.56
2022-10-26T10:35:24.239Z,91.76
2022-10-26T10:37:52.679Z,91.67
2022-10-26T10:40:25.529Z,91.70
2022-10-26T10:42:55.600Z,92.80
2022-10-26T10:45:28.556Z,92.63
2022-10-26T10:48:28.656Z,92.04
2022-10-26T10:51:05.372Z,91.71
2022-10-26T10:53:50.865Z,91.93
2022-10-26T10:56:43.692Z,91.71
2022-10-26T10:59:34.652Z,91.46
2022-10-26T11:02:18.350Z,91.45
2022-10-26T11:05:10.516Z,91.63
2022-10-26T11:07:47.984Z,90.87
2022-10-26T11:10:17.076Z,90.71
2022-10-26T11:12:58.151Z,89.94
2022-10-26T11:15:28.382Z,89.02
2022-10-26T11:18:20.131Z,89.33
2022-10-26T11:23:37.851Z,88.90
2022-10-26T11:26:12.255Z,87.14
2022-10-26T11:28:52.701Z,87.05
2022-10-26T11:31:31.262Z,86.67
2022-10-26T11:34:22.259Z,86.40
2022-10-26T11:36:54.735Z,86.27
2022-10-26T11:39:33.265Z,85.59
2022-10-26T11:42:14.478Z,86.36
2022-10-26T11:44:52.908Z,86.81
2022-10-26T11:47:34.820Z,86.23
2022-10-26T11:50:17.671Z,86.21
2022-10-26T11:52:54.443Z,86.25
2022-10-26T11:55:22.840Z,85.46
2022-10-26T11:57:53.176Z,84.91
2022-10-26T12:00:22.020Z,84.43
2022-10-26T12:02:55.683Z,83.86
2022-10-26T12:05:24.250Z,84.19
2022-10-26T12:07:58.796Z,84.57
2022-10-26T12:10:32.427Z,83.80
2022-10-26T12:13:27.428Z,83.00
2022-10-26T12:16:03.671Z,83.93
2022-10-26T12:19:01.539Z,83.19
2022-10-26T12:21:31.938Z,83.46
2022-10-26T12:23:59.743Z,83.50
2022-10-26T12:26:26.253Z,83.51
2022-10-26T12:29:01.786Z,83.23
2022-10-26T12:31:37.327Z,83.06
2022-10-26T12:34:37.291Z,83.58
2022-10-26T12:37:04.257Z,83.85
2022-10-26T12:39:40.364Z,84.21
2022-10-26T12:42:29.816Z,83.31
2022-10-26T12:44:59.153Z,82.57
2022-10-26T12:47:28.760Z,82.15
2022-10-26T12:50:07.678Z,82.09
2022-10-26T12:52:53.342Z,81.86
2022-10-26T12:55:49.608Z,82.29
2022-10-26T12:58:42.196Z,81.70
2022-10-26T13:01:23.643Z,81.95
2022-10-26T13:04:02.630Z,81.92
2022-10-26T13:06:40.354Z,83.08
2022-10-26T13:09:15.174Z,83.52
2022-10-26T13:11:52.722Z,84.43
2022-10-26T13:14:29.318Z,85.02
2022-10-26T13:16:56.269Z,85.51
2022-10-26T13:19:24.137Z,85.52
2022-10-26T13:21:53.732Z,85.62
2022-10-26T13:24:24.549Z,84.63
2022-10-26T13:27:07.211Z,84.62
2022-10-26T13:30:13.918Z,84.54
2022-10-26T13:32:47.861Z,84.25
2022-10-26T13:35:16.389Z,83.71
2022-10-26T13:37:47.381Z,83.96
2022-10-26T13:40:21.392Z,83.93
2022-10-26T13:42:57.468Z,83.83
2022-10-26T13:45:49.237Z,83.73
2022-10-26T13:48:41.158Z,83.51
2022-10-26T13:51:19.297Z,83.84
2022-10-26T13:54:01.856Z,83.75
2022-10-26T13:56:36.853Z,84.57
2022-10-26T13:59:06.589Z,85.19
2022-10-26T14:01:33.232Z,84.62
2022-10-26T14:04:00.041Z,84.67
2022-10-26T14:06:28.951Z,83.81
2022-10-26T14:08:59.800Z,84.26
2022-10-26T14:11:48.515Z,83.61
2022-10-26T14:14:19.898Z,84.27
2022-10-26T14:16:47.486Z,83.89
2022-10-26T14:19:24.735Z,83.99
2022-10-26T14:21:52.264Z,84.04
2022-10-26T14:24:46.275Z,83.37
2022-10-26T14:27:18.325Z,83.70
2022-10-26T14:29:49.792Z,84.02
2022-10-26T14:32:32.010Z,84.49
2022-10-26T14:34:58.606Z,84.42
2022-10-26T14:37:37.110Z,85.32
2022-10-26T14:40:05.438Z,86.19
2022-10-26T14:42:35.737Z,85.31
2022-10-26T14:45:03.230Z,85.45
2022-10-26T14:47:35.671Z,86.15
2022-10-26T14:50:03.095Z,86.68
2022-10-26T14:52:33.485Z,86.70
2022-10-26T14:55:11.727Z,87.00
2022-10-26T14:57:40.653Z,87.56
2022-10-26T15:00:20.691Z,87.53
2022-10-26T15:02:50.319Z,88.08
2022-10-26T15:05:17.116Z,88.77
2022-10-26T15:07:44.760Z,89.40
2022-10-26T15:10:36.232Z,89.35
2022-10-26T15:13:23.826Z,89.79
2022-10-26T15:15:54.811Z,90.18
2022-10-26T15:18:30.254Z,90.60
2022-10-26T15:20:57.930Z,90.48
2022-10-26T15:23:26.849Z,90.50
2022-10-26T15:25:56.148Z,90.46
2022-10-26T15:28:36.805Z,90.35
2022-10-26T15:31:06.577Z,91.13
2022-10-26T15:33:34.539Z,91.79
2022-10-26T15:36:18.965Z,91.67
2022-10-26T15:38:48.114Z,92.15
2022-10-26T15:41:21.193Z,92.34
2022-10-26T15:43:49.150Z,92.66
2022-10-26T15:46:16.169Z,93.42
2022-10-26T15:48:43.432Z,94.02
2022-10-26T15:51:13.865Z,94.01
2022-10-26T15:53:40.412Z,94.79
2022-10-26T15:56:18.607Z,94.98
2022-10-26T15:58:45.819Z,95.34
2022-10-26T16:01:25.957Z,95.68
2022-10-26T16:03:53.105Z,96.49
2022-10-26T16:06:28.498Z,97.45
2022-10-26T16:08:58.195Z,98.09
2022-10-26T16:11:25.094Z,97.14
2022-10-26T16:13:51.749Z,97.05
2022-10-26T16:16:19.893Z,97.20
2022-10-26T16:18:48.979Z,98.31
2022-10-26T16:21:18.045Z,99.00
2022-10-26T16:23:50.464Z,99.40
2022-10-26T16:26:17.934Z,99.69
2022-10-26T16:28:44.783Z,99.45
2022-10-26T16:31:13.819Z,99.41
2022-10-26T16:33:40.433Z,99.46
2022-10-26T16:36:08.122Z,99.81
2022-10-26T16:38:34.967Z,99.85
2022-10-26T16:41:07.106Z,100.00
2022-10-26T16:43:36.568Z,100.00
2022-10-26T16:46:10.720Z,100.00
2022-10-26T16:48:38.444Z,100.00
2022-10-26T16:51:07.202Z,100.00
2022-10-26T16:53:34.001Z,100.00
2022-10-26T16:56:09.742Z,100.00
2022-10-26T16:58:37.615Z,100.00
2022-10-26T17:01:05.884Z,100.00
2022-10-26T17:03:33.380Z,100.00
2022-10-26T17:06:05.653Z,100.00
2022-10-26T17:08:34.316Z,100.00
2022-10-26T17:11:16.109Z,100.00
2022-10-26T17:13:43.974Z,100.00
2022-10-26T17:16:19.358Z,100.00
2022-10-26T17:18:50.282Z,100.00
2022-10-26T17:21:19.618Z,100.00
2022-10-26T17:23:46.535Z,100.00
2022-10-26T17:26:15.114Z,100.00
2022-10-26T17:28:42.196Z,100.00
2022-10-26T17:31:11.868Z,100.00
2022-10-26T17:33:39.878Z,100.00
2022-10-26T17:36:07.840Z,100.00
2022-10-26T17:38:37.181Z,100.00
2022-10-26T17:41:10.570Z,100.00
2022-10-26T17:43:38.841Z,100.00
2022-10-26T17:46:08.325Z,100.00
2022-10-26T17:48:34.926Z,100.00
2022-10-26T17:51:02.970Z,100.00
2022-10-26T17:53:30.197Z,100.00
2022-10-26T17:56:05.085Z,100.00
2022-10-26T17:58:32.902Z,100.00
2022-10-26T18:01:05.504Z,100.00
2022-10-26T18:03:32.830Z,100.00
2022-10-26T18:05:59.897Z,100.00
2022-10-26T18:08:26.935Z,100.00
2022-10-26T18:10:59.005Z,100.00
2022-10-26T18:13:31.706Z,100.00
2022-10-26T18:16:05.329Z,100.00
2022-10-26T18:18:32.110Z,100.00
2022-10-26T18:21:04.474Z,100.00
2022-10-26T18:23:31.191Z,100.00
2022-10-26T18:26:14.162Z,100.00
2022-10-26T18:28:41.519Z,100.00
2022-10-26T18:31:11.105Z,100.00
2022-10-26T18:33:38.385Z,100.00
2022-10-26T18:36:11.229Z,100.00
2022-10-26T18:38:43.765Z,100.00
2022-10-26T18:41:12.368Z,100.00
2022-10-26T18:43:41.085Z,100.00
2022-10-26T18:46:10.575Z,100.00
2022-10-26T18:48:37.770Z,100.00
2022-10-26T18:51:08.032Z,100.00
2022-10-26T18:53:36.551Z,100.00
2022-10-26T18:56:06.142Z,100.00
2022-10-26T18:58:34.410Z,100.00
2022-10-26T19:01:22.305Z,100.00
2022-10-26T19:03:56.769Z,100.00
2022-10-26T19:06:26.567Z,100.00
2022-10-26T19:08:54.004Z,100.00
2022-10-26T19:11:22.505Z,100.00
2022-10-26T19:13:55.034Z,100.00
2022-10-26T19:16:44.515Z,100.00
2022-10-26T19:19:11.308Z,100.00
2022-10-26T19:21:38.316Z,100.00
2022-10-26T19:24:05.419Z,100.00
2022-10-26T19:26:36.912Z,100.00
2022-10-26T19:29:06.915Z,100.00
2022-10-26T19:31:35.875Z,100.00
2022-10-26T19:34:03.281Z,100.00
2022-10-26T19:36:30.642Z,100.00
2022-10-26T19:38:57.524Z,100.00
2022-10-26T19:41:26.787Z,100.00
2022-10-26T19:43:54.847Z,100.00
2022-10-26T19:46:27.056Z,100.00
2022-10-26T19:49:01.972Z,100.00
2022-10-26T19:51:30.214Z,100.00
2022-10-26T19:54:02.218Z,100.00
2022-10-26T19:56:30.637Z,100.00
2022-10-26T19:58:57.290Z,100.00
2022-10-26T20:01:24.419Z,100.00
2022-10-26T20:03:51.354Z,100.00
2022-10-26T20:06:18.401Z,100.00
2022-10-26T20:08:47.776Z,100.00
2022-10-26T20:11:16.762Z,100.00
2022-10-26T20:13:44.717Z,100.00
2022-10-26T20:16:12.498Z,100.00
2022-10-26T20:18:44.005Z,100.00
2022-10-26T20:21:14.835Z,100.00
2022-10-26T20:23:41.753Z,100.00
2022-10-26T20:26:08.603Z,100.00
2022-10-26T20:28:36.651Z,100.00
2022-10-26T20:31:03.302Z,100.00
2022-10-26T20:33:29.942Z,100.00
2022-10-26T20:36:00.452Z,100.00
2022-10-26T20:38:27.772Z,100.00
2022-10-26T20:40:57.322Z,100.00
2022-10-26T20:43:25.918Z,100.00
2022-10-26T20:45:53.742Z,100.00
2022-10-26T20:48:20.713Z,100.00
2022-10-26T20:50:56.438Z,100.00
2022-10-26T20:53:26.960Z,100.00
2022-10-26T20:56:03.061Z,100.00
2022-10-26T20:58:45.344Z,100.00
2022-10-26T21:01:24.340Z,100.00
2022-10-26T21:03:52.466Z,100.00
2022-10-26T21:06:19.383Z,100.00
2022-10-26T21:08:48.689Z,100.00
2022-10-26T21:11:16.165Z,100.00
2022-10-26T21:13:45.934Z,100.00
2022-10-26T21:16:12.676Z,100.00
2022-10-26T21:18:39.522Z,100.00
2022-10-26T21:21:06.585Z,100.00
2022-10-26T21:23:35.889Z,100.00
2022-10-26T21:26:02.816Z,100.00
2022-10-26T21:28:43.004Z,100.00
2022-10-26T21:31:11.626Z,100.00
2022-10-26T21:33:38.435Z,100.00
2022-10-26T21:36:07.767Z,100.00
2022-10-26T21:38:35.704Z,100.00
2022-10-26T21:41:09.483Z,100.00
2022-10-26T21:43:37.756Z,100.00
2022-10-26T21:46:05.254Z,100.00
2022-10-26T21:48:33.041Z,100.00
2022-10-26T21:51:04.755Z,100.00
2022-10-26T21:53:31.668Z,100.00
2022-10-26T21:56:01.856Z,100.00
2022-10-26T21:58:29.740Z,100.00
2022-10-26T22:01:14.291Z,100.00
2022-10-26T22:03:41.876Z,100.00
2022-10-26T22:06:09.831Z,100.00
2022-10-26T22:08:37.109Z,100.00
2022-10-26T22:11:19.580Z,100.00
2022-10-26T22:13:48.144Z,100.00
2022-10-26T22:16:19.092Z,100.00
2022-10-26T22:18:46.080Z,100.00
2022-10-26T22:21:14.336Z,100.00
2022-10-26T22:23:42.200Z,100.00
2022-10-26T22:26:18.529Z,100.00
2022-10-26T22:28:46.897Z,100.00
2022-10-26T22:31:16.618Z,100.00
2022-10-26T22:33:43.410Z,100.00
2022-10-26T22:36:15.141Z,100.00
2022-10-26T22:38:42.579Z,100.00
2022-10-26T22:41:10.216Z,100.00
2022-10-26T22:43:37.217Z,100.00
2022-10-26T22:46:15.573Z,100.00
2022-10-26T22:48:45.376Z,100.00
2022-10-26T22:51:13.311Z,100.00
2022-10-26T22:53:40.116Z,100.00
2022-10-26T22:56:08.604Z,100.00
2022-10-26T22:58:36.054Z,100.00
2022-10-26T23:01:08.770Z,100.00
2022-10-26T23:03:36.018Z,100.00
2022-10-26T23:06:04.329Z,100.00
2022-10-26T23:08:31.024Z,100.00
2022-10-26T23:11:02.892Z,100.00
2022-10-26T23:13:29.665Z,100.00
2022-10-26T23:15:56.654Z,100.00
2022-10-26T23:18:23.427Z,100.00
2022-10-26T23:20:51.092Z,100.00
2022-10-26T23:23:18.894Z,100.00
2022-10-26T23:25:45.673Z,100.00
2022-10-26T23:28:12.500Z,100.00
2022-10-26T23:30:39.259Z,100.00
2022-10-26T23:33:07.243Z,100.00
2022-10-26T23:35:33.792Z,100.00
2022-10-26T23:38:00.908Z,100.00
2022-10-26T23:40:27.690Z,100.00
2022-10-26T23:42:54.539Z,100.00
2022-10-26T23:45:21.860Z,100.00
2022-10-26T23:47:49.077Z,100.00
2022-10-26T23:50:16.297Z,100.00
2022-10-26T23:52:47.664Z,100.00
2022-10-26T23:55:14.994Z,100.00
2022-10-26T23:57:41.619Z,100.00
